createdAt,value
2022-10-23T00:00:38.914Z,99.99
2022-10-23T00:03:46.252Z,99.99
2022-10-23T00:06:54.396Z,99.99
2022-10-23T00:10:02.466Z,99.99
2022-10-23T00:13:09.811Z,99.99
2022-10-23T00:16:17.933Z,99.99
2022-10-23T00:19:25.683Z,99.99
2022-10-23T00:22:35.077Z,99.99
2022-10-23T00:25:43.098Z,99.99
2022-10-23T00:28:51.258Z,99.99
2022-10-23T00:31:59.830Z,99.99
2022-10-23T00:35:08.319Z,99.99
2022-10-23T00:38:16.707Z,99.99
2022-10-23T00:41:24.162Z,99.99
2022-10-23T00:44:32.090Z,99.99
2022-10-23T00:47:39.763Z,99.99
2022-10-23T00:50:47.400Z,99.99
2022-10-23T00:54:01.287Z,99.99
2022-10-23T00:57:00.304Z,99.99
2022-10-23T01:00:07.803Z,99.99
2022-10-23T01:03:15.472Z,99.99
2022-10-23T01:06:23.492Z,99.99
2022-10-23T01:09:31.187Z,99.99
2022-10-23T01:12:38.895Z,99.99
2022-10-23T01:15:47.075Z,99.99
2022-10-23T01:18:54.431Z,99.99
2022-10-23T01:22:02.476Z,99.99
2022-10-23T01:25:10.549Z,99.99
2022-10-23T01:28:17.769Z,99.99
2022-10-23T01:31:25.871Z,99.99
2022-10-23T01:34:33.540Z,99.99
2022-10-23T01:37:41.252Z,99.99
2022-10-23T01:40:49.295Z,99.99
2022-10-23T01:43:56.856Z,99.99
2022-10-23T01:47:04.515Z,99.99
2022-10-23T01:50:12.687Z,99.99
2022-10-23T01:53:20.266Z,99.99
2022-10-23T01:56:27.916Z,99.99
2022-10-23T01:59:35.585Z,99.99
2022-10-23T02:02:43.699Z,99.99
2022-10-23T02:05:51.435Z,99.99
2022-10-23T02:08:59.129Z,99.99
2022-10-23T02:12:06.862Z,99.99
2022-10-23T02:15:14.407Z,99.99
2022-10-23T02:18:22.080Z,99.99
2022-10-23T02:21:29.644Z,99.99
2022-10-23T02:24:37.373Z,99.99
2022-10-23T02:27:45.280Z,99.99
2022-10-23T02:30:53.003Z,99.99
2022-10-23T02:34:00.692Z,99.99
2022-10-23T02:37:08.591Z,99.99
2022-10-23T02:40:16.219Z,99.99
2022-10-23T02:43:23.568Z,99.99
2022-10-23T02:46:31.411Z,99.99
2022-10-23T02:49:38.676Z,99.99
2022-10-23T02:52:46.549Z,99.99
2022-10-23T02:55:54.666Z,99.99
2022-10-23T02:59:02.041Z,99.99
2022-10-23T03:02:10.158Z,99.99
2022-10-23T03:05:18.411Z,99.99
2022-10-23T03:08:25.740Z,99.99
2022-10-23T03:11:33.865Z,99.99
2022-10-23T03:14:41.624Z,99.99
2022-10-23T03:17:49.353Z,99.99
2022-10-23T03:20:57.235Z,99.99
2022-10-23T03:24:05.035Z,99.99
2022-10-23T03:27:12.821Z,99.99
2022-10-23T03:30:20.651Z,99.99
2022-10-23T03:33:28.508Z,99.99
2022-10-23T03:36:36.579Z,99.99
2022-10-23T03:39:43.960Z,99.99
2022-10-23T03:42:52.098Z,99.99
2022-10-23T03:45:59.862Z,99.99
2022-10-23T03:49:07.178Z,99.99
2022-10-23T03:52:15.124Z,99.99
2022-10-23T03:55:22.875Z,99.99
2022-10-23T03:58:30.431Z,99.99
2022-10-23T04:01:38.662Z,99.99
2022-10-23T04:04:46.345Z,99.99
2022-10-23T04:07:54.032Z,99.99
2022-10-23T04:11:02.427Z,99.99
2022-10-23T04:14:09.693Z,99.99
2022-10-23T04:17:17.921Z,99.99
2022-10-23T04:20:25.502Z,99.99
2022-10-23T04:23:32.728Z,99.99
2022-10-23T04:26:40.931Z,99.99
2022-10-23T04:29:48.921Z,99.99
2022-10-23T04:32:56.120Z,99.99
2022-10-23T04:36:04.227Z,99.99
2022-10-23T04:39:12.326Z,99.99
2022-10-23T04:42:19.627Z,99.99
2022-10-23T04:45:27.728Z,99.99
2022-10-23T04:48:35.320Z,99.99
2022-10-23T04:51:42.914Z,99.99
2022-10-23T04:54:51.011Z,99.99
2022-10-23T04:57:58.589Z,99.99
2022-10-23T05:01:06.104Z,99.99
2022-10-23T05:04:14.038Z,99.99
2022-10-23T05:10:29.148Z,99.99
2022-10-23T05:13:36.991Z,99.99
2022-10-23T05:16:44.613Z,99.99
2022-10-23T05:19:52.345Z,99.99
2022-10-23T05:23:00.176Z,99.99
2022-10-23T05:26:07.673Z,99.99
2022-10-23T05:29:15.322Z,99.99
2022-10-23T05:32:22.879Z,99.99
2022-10-23T05:35:30.727Z,99.99
2022-10-23T05:38:38.519Z,99.99
2022-10-23T05:41:46.320Z,99.99
2022-10-23T05:44:54.156Z,99.99
2022-10-23T05:48:11.103Z,99.99
2022-10-23T05:51:06.761Z,99.99
2022-10-23T05:54:14.645Z,99.99
2022-10-23T05:57:22.075Z,99.99
2022-10-23T06:00:30.167Z,99.99
2022-10-23T06:03:37.893Z,99.99
2022-10-23T06:06:45.136Z,99.99
2022-10-23T06:09:53.145Z,99.99
2022-10-23T06:13:00.586Z,99.99
2022-10-23T06:16:09.864Z,99.99
2022-10-23T06:19:17.780Z,99.99
2022-10-23T06:22:25.222Z,99.99
2022-10-23T06:25:33.326Z,99.99
2022-10-23T06:28:41.501Z,99.99
2022-10-23T06:31:49.189Z,99.99
2022-10-23T06:34:57.132Z,99.99
2022-10-23T06:38:04.893Z,99.99
2022-10-23T06:41:12.682Z,99.99
2022-10-23T06:44:21.028Z,99.99
2022-10-23T06:47:28.556Z,99.99
2022-10-23T06:50:36.386Z,99.99
2022-10-23T06:53:44.241Z,99.99
2022-10-23T06:56:51.414Z,99.99
2022-10-23T06:59:59.487Z,99.99
2022-10-23T07:03:06.838Z,99.99
2022-10-23T07:06:14.709Z,99.99
2022-10-23T07:09:22.044Z,99.99
2022-10-23T07:12:29.544Z,99.99
2022-10-23T07:15:37.180Z,99.99
2022-10-23T07:18:44.842Z,99.99
2022-10-23T07:21:52.600Z,99.99
2022-10-23T07:25:00.303Z,99.99
2022-10-23T07:28:08.193Z,99.99
2022-10-23T07:31:15.834Z,99.99
2022-10-23T07:34:23.204Z,99.99
2022-10-23T07:37:31.240Z,99.99
2022-10-23T07:40:38.849Z,99.99
2022-10-23T07:43:46.379Z,99.99
2022-10-23T07:46:53.977Z,99.99
2022-10-23T07:50:02.328Z,99.99
2022-10-23T07:53:10.263Z,99.99
2022-10-23T07:56:18.220Z,99.99
2022-10-23T07:59:26.262Z,99.99
2022-10-23T08:02:34.375Z,99.99
2022-10-23T08:05:43.579Z,99.99
2022-10-23T08:08:52.396Z,99.99
2022-10-23T08:11:59.965Z,99.99
2022-10-23T08:15:08.998Z,99.99
2022-10-23T08:18:17.398Z,99.99
2022-10-23T08:21:25.017Z,99.99
2022-10-23T08:24:33.949Z,99.99
2022-10-23T08:27:43.108Z,99.72
2022-10-23T08:30:51.257Z,99.62
2022-10-23T08:34:00.220Z,99.11
2022-10-23T08:37:09.058Z,99.06
2022-10-23T08:40:16.764Z,98.75
2022-10-23T08:43:25.442Z,98.91
2022-10-23T08:46:33.760Z,98.30
2022-10-23T08:49:42.086Z,98.20
2022-10-23T08:52:51.121Z,98.50
2022-10-23T08:55:59.003Z,98.16
2022-10-23T08:59:07.143Z,98.16
2022-10-23T09:02:16.113Z,98.05
2022-10-23T09:05:23.871Z,97.91
2022-10-23T09:08:32.031Z,97.96
2022-10-23T09:11:39.963Z,97.86
2022-10-23T09:14:48.713Z,97.41
2022-10-23T09:17:56.893Z,97.31
2022-10-23T09:21:05.243Z,97.11
2022-10-23T09:24:13.214Z,96.75
2022-10-23T09:27:21.956Z,96.55
2022-10-23T09:30:30.260Z,96.10
2022-10-23T09:33:38.320Z,96.51
2022-10-23T09:36:46.708Z,96.36
2022-10-23T09:39:55.325Z,96.06
2022-10-23T09:43:03.160Z,95.86
2022-10-23T09:46:11.339Z,95.81
2022-10-23T09:49:19.694Z,95.71
2022-10-23T09:52:28.011Z,95.91
2022-10-23T09:55:36.304Z,95.30
2022-10-23T09:58:45.025Z,95.20
2022-10-23T10:01:53.051Z,94.90
2022-10-23T10:05:01.574Z,95.00
2022-10-23T10:08:10.342Z,95.15
2022-10-23T10:11:18.138Z,94.95
2022-10-23T10:14:26.793Z,94.65
2022-10-23T10:17:35.363Z,94.55
2022-10-23T10:20:43.350Z,94.95
2022-10-23T10:23:51.792Z,94.60
2022-10-23T10:26:59.846Z,94.20
2022-10-23T10:30:08.445Z,93.39
2022-10-23T10:33:16.912Z,93.75
2022-10-23T10:39:33.854Z,93.10
2022-10-23T10:42:41.964Z,92.90
2022-10-23T10:45:50.130Z,92.40
2022-10-23T10:48:58.383Z,91.89
2022-10-23T10:52:07.101Z,91.99
2022-10-23T10:55:16.492Z,91.78
2022-10-23T10:58:24.431Z,90.98
2022-10-23T11:01:32.670Z,91.64
2022-10-23T11:04:41.596Z,91.03
2022-10-23T11:07:50.436Z,91.19
2022-10-23T11:10:58.492Z,90.28
2022-10-23T11:14:06.949Z,90.65
2022-10-23T11:17:15.264Z,90.14
2022-10-23T11:20:23.871Z,89.79
2022-10-23T11:23:32.412Z,89.90
2022-10-23T11:26:40.103Z,89.45
2022-10-23T11:29:49.295Z,89.45
2022-10-23T11:32:58.005Z,89.35
2022-10-23T11:36:05.785Z,89.21
2022-10-23T11:39:13.896Z,89.31
2022-10-23T11:42:21.950Z,89.77
2022-10-23T11:45:29.242Z,88.76
2022-10-23T11:48:37.344Z,87.62
2022-10-23T11:51:45.031Z,87.71
2022-10-23T11:54:52.703Z,87.47
2022-10-23T11:58:00.593Z,87.27
2022-10-23T12:01:08.123Z,86.46
2022-10-23T12:04:15.784Z,85.72
2022-10-23T12:07:23.709Z,86.12
2022-10-23T12:10:31.425Z,85.62
2022-10-23T12:13:39.077Z,86.22
2022-10-23T12:16:46.979Z,85.62
2022-10-23T12:19:54.319Z,85.42
2022-10-23T12:23:01.941Z,85.22
2022-10-23T12:26:09.581Z,85.42
2022-10-23T12:29:17.806Z,86.22
2022-10-23T12:32:25.414Z,84.51
2022-10-23T12:35:33.136Z,85.62
2022-10-23T12:38:41.137Z,85.31
2022-10-23T12:41:48.476Z,85.82
2022-10-23T12:44:56.499Z,86.22
2022-10-23T12:48:04.575Z,85.11
2022-10-23T12:51:11.787Z,85.42
2022-10-23T12:54:19.784Z,84.67
2022-10-23T12:57:27.900Z,84.88
2022-10-23T13:00:35.323Z,83.47
2022-10-23T13:03:43.534Z,83.37
2022-10-23T13:06:51.647Z,83.97
2022-10-23T13:09:58.958Z,84.61
2022-10-23T13:13:06.900Z,85.52
2022-10-23T13:16:14.979Z,85.52
2022-10-23T13:19:22.231Z,86.06
2022-10-23T13:22:30.272Z,86.66
2022-10-23T13:25:37.892Z,87.27
2022-10-23T13:28:45.374Z,88.28
2022-10-23T13:31:53.282Z,88.28
2022-10-23T13:35:10.044Z,88.18
2022-10-23T13:38:05.966Z,87.41
2022-10-23T13:41:13.920Z,87.01
2022-10-23T13:44:21.997Z,85.70
2022-10-23T13:47:29.579Z,86.71
2022-10-23T13:50:37.342Z,86.61
2022-10-23T13:53:45.427Z,87.01
2022-10-23T13:56:53.201Z,87.21
2022-10-23T14:00:00.963Z,87.82
2022-10-23T14:03:08.644Z,88.12
2022-10-23T14:06:16.174Z,89.06
2022-10-23T14:09:24.036Z,88.66
2022-10-23T14:12:32.500Z,88.66
2022-10-23T14:15:40.362Z,88.86
2022-10-23T14:18:48.451Z,88.81
2022-10-23T14:21:56.510Z,89.21
2022-10-23T14:25:03.762Z,89.41
2022-10-23T14:28:11.760Z,89.21
2022-10-23T14:31:19.774Z,89.51
2022-10-23T14:34:27.046Z,89.71
2022-10-23T14:37:34.900Z,89.65
2022-10-23T14:40:42.729Z,90.16
2022-10-23T14:43:50.396Z,89.75
2022-10-23T14:46:58.524Z,88.85
2022-10-23T14:50:06.292Z,88.45
2022-10-23T14:53:14.001Z,87.27
2022-10-23T14:56:21.880Z,86.87
2022-10-23T14:59:30.014Z,86.77
2022-10-23T15:02:37.623Z,86.67
2022-10-23T15:05:45.415Z,86.67
2022-10-23T15:08:53.626Z,86.57
2022-10-23T15:12:01.076Z,86.27
2022-10-23T15:15:08.851Z,86.07
2022-10-23T15:18:17.039Z,86.10
2022-10-23T15:21:24.481Z,85.70
2022-10-23T15:24:32.791Z,85.60
2022-10-23T15:27:40.805Z,85.19
2022-10-23T15:30:47.980Z,85.60
2022-10-23T15:33:56.056Z,85.84
2022-10-23T15:37:04.174Z,86.15
2022-10-23T15:40:11.505Z,85.94
2022-10-23T15:43:19.566Z,84.93
2022-10-23T15:46:27.108Z,84.63
2022-10-23T15:49:34.969Z,84.83
2022-10-23T15:52:43.327Z,84.83
2022-10-23T15:55:51.069Z,85.28
2022-10-23T15:58:58.884Z,85.78
2022-10-23T16:02:07.057Z,86.19
2022-10-23T16:05:14.516Z,85.93
2022-10-23T16:08:22.135Z,86.22
2022-10-23T16:11:29.938Z,86.37
2022-10-23T16:14:38.295Z,86.87
2022-10-23T16:17:46.672Z,86.98
2022-10-23T16:20:54.009Z,87.08
2022-10-23T16:24:01.899Z,87.42
2022-10-23T16:27:09.697Z,87.82
2022-10-23T16:30:17.240Z,87.82
2022-10-23T16:33:24.979Z,88.53
2022-10-23T16:36:32.953Z,89.08
2022-10-23T16:39:40.671Z,89.89
2022-10-23T16:42:48.182Z,90.50
2022-10-23T16:45:55.703Z,91.00
2022-10-23T16:49:04.148Z,91.35
2022-10-23T16:52:11.967Z,91.55
2022-10-23T16:55:19.351Z,91.96
2022-10-23T16:58:27.809Z,92.16
2022-10-23T17:01:36.161Z,92.26
2022-10-23T17:04:43.624Z,92.26
2022-10-23T17:07:51.613Z,92.06
2022-10-23T17:10:59.345Z,91.86
2022-10-23T17:14:07.442Z,91.55
2022-10-23T17:17:15.574Z,91.46
2022-10-23T17:20:23.379Z,91.46
2022-10-23T17:23:31.035Z,91.55
2022-10-23T17:26:39.891Z,91.46
2022-10-23T17:29:47.945Z,91.75
2022-10-23T17:32:59.386Z,92.16
2022-10-23T17:35:58.608Z,92.51
2022-10-23T17:39:06.610Z,92.82
2022-10-23T17:42:14.424Z,93.22
2022-10-23T17:45:22.144Z,93.52
2022-10-23T17:48:30.802Z,93.97
2022-10-23T17:51:38.788Z,94.18
2022-10-23T17:54:46.765Z,94.58
2022-10-23T17:57:55.025Z,94.78
2022-10-23T18:01:02.621Z,95.19
2022-10-23T18:04:10.689Z,95.29
2022-10-23T18:07:19.068Z,95.54
2022-10-23T18:10:26.757Z,95.50
2022-10-23T18:13:35.370Z,95.43
2022-10-23T18:16:42.881Z,95.19
2022-10-23T18:19:50.461Z,95.23
2022-10-23T18:22:58.683Z,95.13
2022-10-23T18:26:06.875Z,95.13
2022-10-23T18:29:14.396Z,95.03
2022-10-23T18:32:22.617Z,95.09
2022-10-23T18:35:30.679Z,95.39
2022-10-23T18:38:38.786Z,95.39
2022-10-23T18:41:47.213Z,95.50
2022-10-23T18:44:55.159Z,95.50
2022-10-23T18:48:04.120Z,95.59
2022-10-23T18:51:14.903Z,95.70
2022-10-23T18:54:13.031Z,96.00
2022-10-23T18:57:20.451Z,96.61
2022-10-23T19:00:28.395Z,97.06
2022-10-23T19:03:36.441Z,97.47
2022-10-23T19:06:44.569Z,97.67
2022-10-23T19:09:52.038Z,97.77
2022-10-23T19:12:59.928Z,98.07
2022-10-23T19:16:07.349Z,98.22
2022-10-23T19:19:16.241Z,98.43
2022-10-23T19:22:24.651Z,98.93
2022-10-23T19:25:32.382Z,99.24
2022-10-23T19:28:40.479Z,99.54
2022-10-23T19:31:48.965Z,99.99
2022-10-23T19:34:56.514Z,99.99
2022-10-23T19:38:04.985Z,99.99
2022-10-23T19:41:13.466Z,99.99
2022-10-23T19:44:20.909Z,99.99
2022-10-23T19:47:28.786Z,99.99
2022-10-23T19:50:37.309Z,99.99
2022-10-23T19:53:45.566Z,99.99
2022-10-23T19:56:53.635Z,99.99
2022-10-23T20:00:01.311Z,99.99
2022-10-23T20:03:09.082Z,99.99
2022-10-23T20:06:17.332Z,99.99
2022-10-23T20:09:25.228Z,99.99
2022-10-23T20:12:33.145Z,99.99
2022-10-23T20:15:40.905Z,99.99
2022-10-23T20:18:48.714Z,99.99
2022-10-23T20:21:56.357Z,99.99
2022-10-23T20:25:04.280Z,99.99
2022-10-23T20:28:14.363Z,99.99
2022-10-23T20:31:23.164Z,99.99
2022-10-23T20:34:30.952Z,99.99
2022-10-23T20:37:38.702Z,99.99
2022-10-23T20:40:46.136Z,99.99
2022-10-23T20:43:54.585Z,99.99
2022-10-23T20:47:02.386Z,99.99
2022-10-23T20:50:10.006Z,99.99
2022-10-23T20:53:18.240Z,99.99
2022-10-23T20:56:26.361Z,99.99
2022-10-23T20:59:33.670Z,99.99
2022-10-23T21:02:42.716Z,99.99
2022-10-23T21:05:52.208Z,99.99
2022-10-23T21:08:59.705Z,99.99
2022-10-23T21:12:07.789Z,99.99
2022-10-23T21:15:15.703Z,99.99
2022-10-23T21:18:33.634Z,99.99
2022-10-23T21:21:28.467Z,99.99
2022-10-23T21:24:36.038Z,99.99
2022-10-23T21:27:43.798Z,99.99
2022-10-23T21:30:52.086Z,99.99
2022-10-23T21:33:59.804Z,99.99
2022-10-23T21:37:15.165Z,99.99
2022-10-23T21:40:11.528Z,99.99
2022-10-23T21:43:19.721Z,99.99
2022-10-23T21:46:27.625Z,99.99
2022-10-23T21:49:35.288Z,99.99
2022-10-23T21:52:43.715Z,99.99
2022-10-23T21:55:51.544Z,99.99
2022-10-23T21:58:59.266Z,99.99
2022-10-23T22:02:07.126Z,99.99
2022-10-23T22:05:14.945Z,99.99
2022-10-23T22:08:22.650Z,99.99
2022-10-23T22:11:30.422Z,99.99
2022-10-23T22:14:37.719Z,99.99
2022-10-23T22:17:46.023Z,99.99
2022-10-23T22:20:56.246Z,99.99
2022-10-23T22:23:55.173Z,99.99
2022-10-23T22:27:03.021Z,99.99
2022-10-23T22:30:10.629Z,99.99
2022-10-23T22:33:18.194Z,99.99
2022-10-23T22:36:26.329Z,99.99
2022-10-23T22:39:34.143Z,99.99
2022-10-23T22:42:41.658Z,99.99
2022-10-23T22:45:49.755Z,99.99
2022-10-23T22:48:57.264Z,99.99
2022-10-23T22:52:05.429Z,99.99
2022-10-23T22:55:13.489Z,99.99
2022-10-23T22:58:20.792Z,99.99
2022-10-23T23:01:28.747Z,99.99
2022-10-23T23:04:38.144Z,99.99
2022-10-23T23:07:46.306Z,99.99
2022-10-23T23:10:54.719Z,99.99
2022-10-23T23:14:02.474Z,99.99
2022-10-23T23:17:10.192Z,99.99
2022-10-23T23:20:18.581Z,99.99
2022-10-23T23:23:26.328Z,99.99
2022-10-23T23:26:33.899Z,99.99
2022-10-23T23:29:42.053Z,99.99
2022-10-23T23:32:49.752Z,99.99
2022-10-23T23:35:57.498Z,99.99
2022-10-23T23:42:12.733Z,99.99
2022-10-23T23:45:20.535Z,99.99
2022-10-23T23:48:28.187Z,99.99
2022-10-23T23:51:36.248Z,99.99
2022-10-23T23:54:43.935Z,99.99
2022-10-23T23:57:51.726Z,99.99
